sensor_id;sensor_type;location;lat;lon;timestamp;P1;P2;P0
80861;PMS5003;71798;54.942;73.444;2023-08-31T00:01:22;8.00;7.00;5.00
80861;PMS5003;71798;54.942;73.444;2023-08-31T00:08:29;7.00;7.00;4.00
80861;PMS5003;71798;54.942;73.444;2023-08-31T00:10:59;9.00;7.75;4.00
80861;PMS5003;71798;54.942;73.444;2023-08-31T00:13:30;7.25;7.00;4.00
80861;PMS5003;71798;54.942;73.444;2023-08-31T00:15:59;9.00;8.00;4.00
80861;PMS5003;71798;54.942;73.444;2023-08-31T00:18:28;8.00;7.25;5.00
80861;PMS5003;71798;54.942;73.444;2023-08-31T00:20:56;8.00;7.00;4.00
80861;PMS5003;71798;54.942;73.444;2023-08-31T00:23:25;6.75;6.00;4.00
80861;PMS5003;71798;54.942;73.444;2023-08-31T00:25:54;6.00;5.50;3.00
80861;PMS5003;71798;54.942;73.444;2023-08-31T00:28:24;9.00;7.00;4.00
80861;PMS5003;71798;54.942;73.444;2023-08-31T00:30:53;7.00;6.00;4.00
80861;PMS5003;71798;54.942;73.444;2023-08-31T00:33:21;8.00;7.00;5.00
80861;PMS5003;71798;54.942;73.444;2023-08-31T00:35:52;7.50;6.00;4.00
80861;PMS5003;71798;54.942;73.444;2023-08-31T00:38:25;8.00;7.00;4.00
80861;PMS5003;71798;54.942;73.444;2023-08-31T00:40:56;8.75;8.00;4.00
80861;PMS5003;71798;54.942;73.444;2023-08-31T00:43:24;9.00;7.00;5.00
80861;PMS5003;71798;54.942;73.444;2023-08-31T00:45:54;8.00;8.00;5.00
80861;PMS5003;71798;54.942;73.444;2023-08-31T00:48:28;8.00;7.00;4.00
80861;PMS5003;71798;54.942;73.444;2023-08-31T00:50:58;8.75;8.00;5.00
80861;PMS5003;71798;54.942;73.444;2023-08-31T00:53:28;6.25;6.00;4.00
80861;PMS5003;71798;54.942;73.444;2023-08-31T00:56:01;5.25;5.00;3.00
80861;PMS5003;71798;54.942;73.444;2023-08-31T00:58:32;8.00;7.00;4.00
80861;PMS5003;71798;54.942;73.444;2023-08-31T01:03:37;7.75;7.00;4.00
80861;PMS5003;71798;54.942;73.444;2023-08-31T01:08:56;5.00;4.25;3.00
80861;PMS5003;71798;54.942;73.444;2023-08-31T01:11:37;6.00;5.00;3.00
80861;PMS5003;71798;54.942;73.444;2023-08-31T01:14:10;6.00;5.00;3.00
80861;PMS5003;71798;54.942;73.444;2023-08-31T01:16:39;6.00;5.00;3.00
80861;PMS5003;71798;54.942;73.444;2023-08-31T01:19:18;7.00;6.00;4.00
80861;PMS5003;71798;54.942;73.444;2023-08-31T01:21:52;6.00;5.00;3.75
80861;PMS5003;71798;54.942;73.444;2023-08-31T01:24:25;7.00;5.00;3.00
80861;PMS5003;71798;54.942;73.444;2023-08-31T01:26:55;6.25;6.00;4.00
80861;PMS5003;71798;54.942;73.444;2023-08-31T01:29:26;5.00;5.00;3.00
80861;PMS5003;71798;54.942;73.444;2023-08-31T01:31:57;6.00;5.00;4.00
80861;PMS5003;71798;54.942;73.444;2023-08-31T01:34:28;5.25;5.00;3.00
80861;PMS5003;71798;54.942;73.444;2023-08-31T01:36:58;5.25;5.00;3.00
80861;PMS5003;71798;54.942;73.444;2023-08-31T01:39:39;6.00;5.00;3.00
80861;PMS5003;71798;54.942;73.444;2023-08-31T01:42:10;5.00;5.00;3.00
80861;PMS5003;71798;54.942;73.444;2023-08-31T01:44:40;5.00;5.00;4.00
80861;PMS5003;71798;54.942;73.444;2023-08-31T01:47:11;7.00;6.00;3.00
80861;PMS5003;71798;54.942;73.444;2023-08-31T01:49:47;6.00;5.25;4.00
80861;PMS5003;71798;54.942;73.444;2023-08-31T01:52:20;5.00;5.00;4.00
80861;PMS5003;71798;54.942;73.444;2023-08-31T01:54:49;6.00;5.00;3.00
80861;PMS5003;71798;54.942;73.444;2023-08-31T01:57:18;6.00;5.25;3.00
80861;PMS5003;71798;54.942;73.444;2023-08-31T02:00:16;5.00;5.00;3.00
80861;PMS5003;71798;54.942;73.444;2023-08-31T02:02:45;5.00;5.00;3.00
80861;PMS5003;71798;54.942;73.444;2023-08-31T02:05:15;5.00;5.00;3.00
80861;PMS5003;71798;54.942;73.444;2023-08-31T02:07:44;7.00;6.00;4.00
80861;PMS5003;71798;54.942;73.444;2023-08-31T02:10:13;5.00;4.50;3.00
80861;PMS5003;71798;54.942;73.444;2023-08-31T02:12:44;5.00;5.00;3.00
80861;PMS5003;71798;54.942;73.444;2023-08-31T02:15:15;5.00;5.00;3.00
80861;PMS5003;71798;54.942;73.444;2023-08-31T02:17:46;4.00;4.00;2.00
80861;PMS5003;71798;54.942;73.444;2023-08-31T02:20:16;4.00;3.50;2.00
80861;PMS5003;71798;54.942;73.444;2023-08-31T02:22:44;5.00;5.00;3.00
80861;PMS5003;71798;54.942;73.444;2023-08-31T02:25:15;6.00;5.00;3.00
80861;PMS5003;71798;54.942;73.444;2023-08-31T02:27:47;5.00;5.00;3.00
80861;PMS5003;71798;54.942;73.444;2023-08-31T02:30:17;4.00;4.00;2.00
80861;PMS5003;71798;54.942;73.444;2023-08-31T02:32:47;4.00;3.00;2.00
80861;PMS5003;71798;54.942;73.444;2023-08-31T02:35:19;4.00;4.00;3.00
80861;PMS5003;71798;54.942;73.444;2023-08-31T02:37:48;4.00;3.75;2.00
80861;PMS5003;71798;54.942;73.444;2023-08-31T02:40:19;4.00;4.00;3.00
80861;PMS5003;71798;54.942;73.444;2023-08-31T02:42:52;5.00;5.00;2.00
80861;PMS5003;71798;54.942;73.444;2023-08-31T02:45:22;4.00;3.75;2.25
80861;PMS5003;71798;54.942;73.444;2023-08-31T02:47:53;6.00;5.00;3.00
80861;PMS5003;71798;54.942;73.444;2023-08-31T02:50:24;4.00;4.00;3.00
80861;PMS5003;71798;54.942;73.444;2023-08-31T02:52:54;5.00;4.00;3.00
80861;PMS5003;71798;54.942;73.444;2023-08-31T02:55:22;5.25;5.00;2.00
80861;PMS5003;71798;54.942;73.444;2023-08-31T02:57:51;6.00;5.50;3.25
80861;PMS5003;71798;54.942;73.444;2023-08-31T03:00:21;5.00;4.25;3.00
80861;PMS5003;71798;54.942;73.444;2023-08-31T03:02:52;4.00;4.00;3.00
80861;PMS5003;71798;54.942;73.444;2023-08-31T03:05:25;5.00;5.00;3.00
80861;PMS5003;71798;54.942;73.444;2023-08-31T03:07:55;5.00;5.00;3.00
80861;PMS5003;71798;54.942;73.444;2023-08-31T03:10:27;6.00;5.00;4.00
80861;PMS5003;71798;54.942;73.444;2023-08-31T03:12:57;5.00;4.75;3.00
80861;PMS5003;71798;54.942;73.444;2023-08-31T03:15:26;5.00;4.25;3.00
80861;PMS5003;71798;54.942;73.444;2023-08-31T03:17:56;5.00;5.00;3.50
80861;PMS5003;71798;54.942;73.444;2023-08-31T03:20:24;7.00;6.00;4.00
80861;PMS5003;71798;54.942;73.444;2023-08-31T03:22:55;5.00;5.00;4.00
80861;PMS5003;71798;54.942;73.444;2023-08-31T03:25:24;6.00;5.00;3.00
80861;PMS5003;71798;54.942;73.444;2023-08-31T03:27:55;6.00;6.00;3.00
80861;PMS5003;71798;54.942;73.444;2023-08-31T03:30:24;6.00;5.00;3.00
80861;PMS5003;71798;54.942;73.444;2023-08-31T03:32:55;6.00;5.75;3.00
80861;PMS5003;71798;54.942;73.444;2023-08-31T03:35:25;8.00;7.00;4.00
80861;PMS5003;71798;54.942;73.444;2023-08-31T03:37:59;6.00;5.00;3.00
80861;PMS5003;71798;54.942;73.444;2023-08-31T03:40:30;6.00;5.00;3.00
80861;PMS5003;71798;54.942;73.444;2023-08-31T03:43:00;6.00;5.50;3.00
80861;PMS5003;71798;54.942;73.444;2023-08-31T03:45:30;5.00;5.00;3.00
80861;PMS5003;71798;54.942;73.444;2023-08-31T03:48:00;4.00;4.00;2.00
80861;PMS5003;71798;54.942;73.444;2023-08-31T03:50:31;4.00;4.00;3.00
80861;PMS5003;71798;54.942;73.444;2023-08-31T03:53:01;5.00;4.00;3.00
80861;PMS5003;71798;54.942;73.444;2023-08-31T03:55:31;4.00;4.00;2.00
80861;PMS5003;71798;54.942;73.444;2023-08-31T03:58:02;4.00;4.00;2.00
80861;PMS5003;71798;54.942;73.444;2023-08-31T04:00:31;5.00;5.00;3.00
80861;PMS5003;71798;54.942;73.444;2023-08-31T04:03:00;5.00;4.00;2.00
80861;PMS5003;71798;54.942;73.444;2023-08-31T04:05:33;4.50;4.00;3.00
80861;PMS5003;71798;54.942;73.444;2023-08-31T04:08:04;5.75;5.00;3.00
80861;PMS5003;71798;54.942;73.444;2023-08-31T04:10:36;5.00;4.25;3.00
80861;PMS5003;71798;54.942;73.444;2023-08-31T04:13:06;5.00;4.00;3.00
80861;PMS5003;71798;54.942;73.444;2023-08-31T04:15:36;4.00;4.00;3.00
80861;PMS5003;71798;54.942;73.444;2023-08-31T04:18:07;6.00;5.00;3.00
80861;PMS5003;71798;54.942;73.444;2023-08-31T04:20:37;4.75;4.00;3.00
80861;PMS5003;71798;54.942;73.444;2023-08-31T04:23:09;6.00;5.00;3.00
80861;PMS5003;71798;54.942;73.444;2023-08-31T04:25:41;9.00;8.00;5.00
80861;PMS5003;71798;54.942;73.444;2023-08-31T04:28:12;14.00;12.00;7.75
80861;PMS5003;71798;54.942;73.444;2023-08-31T04:30:41;7.00;7.00;4.25
80861;PMS5003;71798;54.942;73.444;2023-08-31T04:33:11;5.00;4.50;3.00
80861;PMS5003;71798;54.942;73.444;2023-08-31T04:35:40;4.50;4.00;3.00
80861;PMS5003;71798;54.942;73.444;2023-08-31T04:38:09;5.00;4.00;2.00
80861;PMS5003;71798;54.942;73.444;2023-08-31T04:40:40;3.00;3.00;2.00
80861;PMS5003;71798;54.942;73.444;2023-08-31T04:43:11;5.00;5.00;3.00
80861;PMS5003;71798;54.942;73.444;2023-08-31T04:45:44;4.00;4.00;3.00
80861;PMS5003;71798;54.942;73.444;2023-08-31T04:48:15;4.00;4.00;3.00
80861;PMS5003;71798;54.942;73.444;2023-08-31T04:50:44;4.00;3.00;2.00
80861;PMS5003;71798;54.942;73.444;2023-08-31T04:53:15;4.00;4.00;2.00
80861;PMS5003;71798;54.942;73.444;2023-08-31T04:55:44;4.00;3.00;2.00
80861;PMS5003;71798;54.942;73.444;2023-08-31T04:58:15;4.00;4.00;2.00
80861;PMS5003;71798;54.942;73.444;2023-08-31T05:00:45;5.00;4.50;3.00
80861;PMS5003;71798;54.942;73.444;2023-08-31T05:03:16;4.50;4.00;3.00
80861;PMS5003;71798;54.942;73.444;2023-08-31T05:05:48;3.75;3.00;2.50
80861;PMS5003;71798;54.942;73.444;2023-08-31T05:08:18;4.00;3.00;2.00
80861;PMS5003;71798;54.942;73.444;2023-08-31T05:10:48;4.00;4.00;3.00
80861;PMS5003;71798;54.942;73.444;2023-08-31T05:13:17;4.00;4.00;2.00
80861;PMS5003;71798;54.942;73.444;2023-08-31T05:15:49;3.00;3.00;2.00
80861;PMS5003;71798;54.942;73.444;2023-08-31T05:18:28;4.00;4.00;3.00
80861;PMS5003;71798;54.942;73.444;2023-08-31T05:20:57;4.00;4.00;2.00
80861;PMS5003;71798;54.942;73.444;2023-08-31T05:23:29;4.00;4.00;2.00
80861;PMS5003;71798;54.942;73.444;2023-08-31T05:25:58;4.00;4.00;3.00
80861;PMS5003;71798;54.942;73.444;2023-08-31T05:28:30;4.75;4.00;3.00
80861;PMS5003;71798;54.942;73.444;2023-08-31T05:30:59;5.00;5.00;3.00
80861;PMS5003;71798;54.942;73.444;2023-08-31T05:33:29;3.00;3.00;2.00
80861;PMS5003;71798;54.942;73.444;2023-08-31T05:36:03;5.00;4.00;2.00
80861;PMS5003;71798;54.942;73.444;2023-08-31T05:38:34;4.00;4.00;3.00
80861;PMS5003;71798;54.942;73.444;2023-08-31T05:41:05;4.00;3.00;2.00
80861;PMS5003;71798;54.942;73.444;2023-08-31T05:43:33;3.00;3.00;2.00
80861;PMS5003;71798;54.942;73.444;2023-08-31T05:46:04;3.00;3.00;2.00
80861;PMS5003;71798;54.942;73.444;2023-08-31T05:48:34;3.00;2.00;2.00
80861;PMS5003;71798;54.942;73.444;2023-08-31T05:51:03;3.00;3.00;2.00
80861;PMS5003;71798;54.942;73.444;2023-08-31T05:53:34;3.00;3.00;1.00
80861;PMS5003;71798;54.942;73.444;2023-08-31T05:56:03;3.00;3.00;2.00
80861;PMS5003;71798;54.942;73.444;2023-08-31T05:58:37;3.00;3.00;2.00
80861;PMS5003;71798;54.942;73.444;2023-08-31T06:01:07;3.00;3.00;2.00
80861;PMS5003;71798;54.942;73.444;2023-08-31T06:03:38;3.00;2.00;2.00
80861;PMS5003;71798;54.942;73.444;2023-08-31T06:06:10;3.00;3.00;2.00
80861;PMS5003;71798;54.942;73.444;2023-08-31T06:08:39;3.00;3.00;2.00
80861;PMS5003;71798;54.942;73.444;2023-08-31T06:11:14;4.00;4.00;3.00
80861;PMS5003;71798;54.942;73.444;2023-08-31T06:13:43;3.00;3.00;2.00
80861;PMS5003;71798;54.942;73.444;2023-08-31T06:16:15;4.00;4.00;2.00
80861;PMS5003;71798;54.942;73.444;2023-08-31T06:18:46;4.00;4.00;2.00
80861;PMS5003;71798;54.942;73.444;2023-08-31T06:21:15;3.75;3.00;2.00
80861;PMS5003;71798;54.942;73.444;2023-08-31T06:23:46;3.00;3.00;2.00
80861;PMS5003;71798;54.942;73.444;2023-08-31T06:26:16;3.00;3.00;2.00
80861;PMS5003;71798;54.942;73.444;2023-08-31T06:28:49;3.00;3.00;2.00
80861;PMS5003;71798;54.942;73.444;2023-08-31T06:31:21;2.00;2.00;1.50
80861;PMS5003;71798;54.942;73.444;2023-08-31T06:33:52;3.00;3.00;1.00
80861;PMS5003;71798;54.942;73.444;2023-08-31T06:36:21;3.00;3.00;2.00
80861;PMS5003;71798;54.942;73.444;2023-08-31T06:38:49;3.00;3.00;2.00
80861;PMS5003;71798;54.942;73.444;2023-08-31T06:41:20;4.00;4.00;2.00
80861;PMS5003;71798;54.942;73.444;2023-08-31T06:43:52;3.00;2.25;1.00
80861;PMS5003;71798;54.942;73.444;2023-08-31T06:46:22;4.00;3.25;2.00
80861;PMS5003;71798;54.942;73.444;2023-08-31T06:48:52;4.00;4.00;2.00
80861;PMS5003;71798;54.942;73.444;2023-08-31T06:51:23;4.00;4.00;3.00
80861;PMS5003;71798;54.942;73.444;2023-08-31T06:53:53;2.00;2.00;1.00
80861;PMS5003;71798;54.942;73.444;2023-08-31T06:56:24;3.00;3.00;2.00
80861;PMS5003;71798;54.942;73.444;2023-08-31T06:58:55;3.00;3.00;2.00
80861;PMS5003;71798;54.942;73.444;2023-08-31T07:01:25;3.00;3.00;2.00
80861;PMS5003;71798;54.942;73.444;2023-08-31T07:03:54;3.00;3.00;2.00
80861;PMS5003;71798;54.942;73.444;2023-08-31T07:06:23;4.00;4.00;2.00
80861;PMS5003;71798;54.942;73.444;2023-08-31T07:08:50;5.50;5.00;3.00
80861;PMS5003;71798;54.942;73.444;2023-08-31T07:11:18;4.50;4.00;3.00
80861;PMS5003;71798;54.942;73.444;2023-08-31T07:13:48;3.50;3.00;3.00
80861;PMS5003;71798;54.942;73.444;2023-08-31T07:16:21;4.75;4.00;3.00
80861;PMS5003;71798;54.942;73.444;2023-08-31T07:18:52;5.00;4.00;3.00
80861;PMS5003;71798;54.942;73.444;2023-08-31T07:21:21;3.25;3.00;2.00
80861;PMS5003;71798;54.942;73.444;2023-08-31T07:23:50;4.25;4.00;2.50
80861;PMS5003;71798;54.942;73.444;2023-08-31T07:26:21;5.00;4.00;3.00
80861;PMS5003;71798;54.942;73.444;2023-08-31T07:28:50;4.00;4.00;2.00
80861;PMS5003;71798;54.942;73.444;2023-08-31T07:31:22;4.00;4.00;2.00
80861;PMS5003;71798;54.942;73.444;2023-08-31T07:33:52;4.00;4.00;2.50
80861;PMS5003;71798;54.942;73.444;2023-08-31T07:36:22;4.25;4.00;2.00
80861;PMS5003;71798;54.942;73.444;2023-08-31T07:38:53;4.00;4.00;3.00
80861;PMS5003;71798;54.942;73.444;2023-08-31T07:41:23;4.00;4.00;2.00
80861;PMS5003;71798;54.942;73.444;2023-08-31T07:43:52;5.00;4.00;3.00
80861;PMS5003;71798;54.942;73.444;2023-08-31T07:46:23;3.00;3.00;2.00
80861;PMS5003;71798;54.942;73.444;2023-08-31T07:48:55;3.50;3.25;2.00
80861;PMS5003;71798;54.942;73.444;2023-08-31T07:51:24;4.00;4.00;2.00
80861;PMS5003;71798;54.942;73.444;2023-08-31T07:53:55;4.00;4.00;2.00
80861;PMS5003;71798;54.942;73.444;2023-08-31T07:56:24;4.00;4.00;3.00
80861;PMS5003;71798;54.942;73.444;2023-08-31T07:58:54;5.00;5.00;4.00
80861;PMS5003;71798;54.942;73.444;2023-08-31T08:01:27;5.00;4.00;3.00
80861;PMS5003;71798;54.942;73.444;2023-08-31T08:03:59;4.00;4.00;3.00
80861;PMS5003;71798;54.942;73.444;2023-08-31T08:06:31;4.00;4.00;3.00
80861;PMS5003;71798;54.942;73.444;2023-08-31T08:09:03;5.00;4.75;3.00
80861;PMS5003;71798;54.942;73.444;2023-08-31T08:11:34;4.00;4.00;3.00
80861;PMS5003;71798;54.942;73.444;2023-08-31T08:14:05;5.00;5.00;3.00
80861;PMS5003;71798;54.942;73.444;2023-08-31T08:16:36;5.50;5.00;3.00
80861;PMS5003;71798;54.942;73.444;2023-08-31T08:19:08;6.00;5.00;3.00
80861;PMS5003;71798;54.942;73.444;2023-08-31T08:21:37;5.00;5.00;3.00
80861;PMS5003;71798;54.942;73.444;2023-08-31T08:24:09;5.00;5.00;4.00
80861;PMS5003;71798;54.942;73.444;2023-08-31T08:26:38;7.00;6.00;3.00
80861;PMS5003;71798;54.942;73.444;2023-08-31T08:29:09;6.00;5.00;4.00
80861;PMS5003;71798;54.942;73.444;2023-08-31T08:31:39;7.00;6.00;3.00
80861;PMS5003;71798;54.942;73.444;2023-08-31T08:34:10;4.00;4.00;2.75
80861;PMS5003;71798;54.942;73.444;2023-08-31T08:36:39;5.00;5.00;3.00
80861;PMS5003;71798;54.942;73.444;2023-08-31T08:39:07;4.00;4.00;3.00
80861;PMS5003;71798;54.942;73.444;2023-08-31T08:41:36;4.00;4.00;3.00
80861;PMS5003;71798;54.942;73.444;2023-08-31T08:44:05;4.00;4.00;2.00
80861;PMS5003;71798;54.942;73.444;2023-08-31T08:46:35;7.00;6.00;4.00
80861;PMS5003;71798;54.942;73.444;2023-08-31T08:49:06;5.00;4.00;3.00
80861;PMS5003;71798;54.942;73.444;2023-08-31T08:51:34;9.50;8.00;5.00
80861;PMS5003;71798;54.942;73.444;2023-08-31T08:54:05;9.50;7.50;4.00
80861;PMS5003;71798;54.942;73.444;2023-08-31T08:56:34;7.00;6.00;3.00
80861;PMS5003;71798;54.942;73.444;2023-08-31T08:59:04;6.00;6.00;3.00
80861;PMS5003;71798;54.942;73.444;2023-08-31T09:01:34;5.00;4.00;3.00
80861;PMS5003;71798;54.942;73.444;2023-08-31T09:04:03;5.00;5.00;3.00
80861;PMS5003;71798;54.942;73.444;2023-08-31T09:06:32;8.00;7.00;4.00
80861;PMS5003;71798;54.942;73.444;2023-08-31T09:09:04;7.00;6.00;3.50
80861;PMS5003;71798;54.942;73.444;2023-08-31T09:11:35;8.00;7.00;4.00
80861;PMS5003;71798;54.942;73.444;2023-08-31T09:17:01;8.00;7.00;4.00
80861;PMS5003;71798;54.942;73.444;2023-08-31T09:19:31;5.00;4.00;2.50
80861;PMS5003;71798;54.942;73.444;2023-08-31T09:22:00;6.00;5.50;3.50
80861;PMS5003;71798;54.942;73.444;2023-08-31T09:24:40;5.25;5.00;3.00
80861;PMS5003;71798;54.942;73.444;2023-08-31T09:27:10;6.00;6.00;3.00
80861;PMS5003;71798;54.942;73.444;2023-08-31T09:29:44;6.75;5.00;3.00
80861;PMS5003;71798;54.942;73.444;2023-08-31T09:32:17;5.25;4.75;3.00
80861;PMS5003;71798;54.942;73.444;2023-08-31T09:34:49;5.00;5.00;3.00
80861;PMS5003;71798;54.942;73.444;2023-08-31T09:37:19;6.00;5.00;3.00
80861;PMS5003;71798;54.942;73.444;2023-08-31T09:39:48;6.00;5.00;3.75
80861;PMS5003;71798;54.942;73.444;2023-08-31T09:42:17;6.00;6.00;4.00
80861;PMS5003;71798;54.942;73.444;2023-08-31T09:44:45;7.00;6.00;4.00
80861;PMS5003;71798;54.942;73.444;2023-08-31T09:47:16;7.00;7.00;5.00
80861;PMS5003;71798;54.942;73.444;2023-08-31T09:49:45;6.00;5.00;4.00
80861;PMS5003;71798;54.942;73.444;2023-08-31T09:52:14;6.00;6.00;4.00
80861;PMS5003;71798;54.942;73.444;2023-08-31T09:54:45;6.00;5.00;4.00
80861;PMS5003;71798;54.942;73.444;2023-08-31T09:57:13;7.50;7.00;5.00
80861;PMS5003;71798;54.942;73.444;2023-08-31T09:59:42;10.00;8.00;5.00
80861;PMS5003;71798;54.942;73.444;2023-08-31T10:02:11;9.00;8.25;5.00
80861;PMS5003;71798;54.942;73.444;2023-08-31T10:04:41;13.00;11.75;8.00
80861;PMS5003;71798;54.942;73.444;2023-08-31T10:07:12;11.00;10.00;6.00
80861;PMS5003;71798;54.942;73.444;2023-08-31T10:09:44;10.00;9.00;6.00
80861;PMS5003;71798;54.942;73.444;2023-08-31T10:12:19;8.00;7.00;4.00
80861;PMS5003;71798;54.942;73.444;2023-08-31T10:14:49;8.00;7.00;4.00
80861;PMS5003;71798;54.942;73.444;2023-08-31T10:17:20;9.00;9.00;5.00
80861;PMS5003;71798;54.942;73.444;2023-08-31T10:19:51;12.00;11.00;6.25
80861;PMS5003;71798;54.942;73.444;2023-08-31T10:22:20;9.25;9.00;5.00
80861;PMS5003;71798;54.942;73.444;2023-08-31T10:27:23;11.00;9.00;6.00
80861;PMS5003;71798;54.942;73.444;2023-08-31T10:29:52;9.00;8.00;6.00
80861;PMS5003;71798;54.942;73.444;2023-08-31T10:32:21;8.00;7.75;5.00
80861;PMS5003;71798;54.942;73.444;2023-08-31T10:35:05;8.50;8.00;5.00
80861;PMS5003;71798;54.942;73.444;2023-08-31T10:37:33;9.00;8.00;5.00
80861;PMS5003;71798;54.942;73.444;2023-08-31T10:40:08;9.00;9.00;6.00
80861;PMS5003;71798;54.942;73.444;2023-08-31T10:42:44;7.00;6.00;4.00
80861;PMS5003;71798;54.942;73.444;2023-08-31T10:45:14;9.00;8.00;5.00
80861;PMS5003;71798;54.942;73.444;2023-08-31T10:47:43;8.00;7.00;4.00
80861;PMS5003;71798;54.942;73.444;2023-08-31T10:50:16;7.00;7.00;4.50
80861;PMS5003;71798;54.942;73.444;2023-08-31T10:52:46;7.75;7.00;4.00
80861;PMS5003;71798;54.942;73.444;2023-08-31T10:55:16;7.25;7.00;4.25
80861;PMS5003;71798;54.942;73.444;2023-08-31T10:57:47;6.75;6.00;3.00
80861;PMS5003;71798;54.942;73.444;2023-08-31T11:00:45;7.00;6.75;4.00
80861;PMS5003;71798;54.942;73.444;2023-08-31T11:03:08;8.25;7.00;4.00
80861;PMS5003;71798;54.942;73.444;2023-08-31T11:05:50;8.00;7.00;4.00
80861;PMS5003;71798;54.942;73.444;2023-08-31T11:08:24;6.25;6.00;4.00
80861;PMS5003;71798;54.942;73.444;2023-08-31T11:11:01;7.00;6.00;4.00
80861;PMS5003;71798;54.942;73.444;2023-08-31T11:13:31;9.00;8.00;4.00
80861;PMS5003;71798;54.942;73.444;2023-08-31T11:16:00;8.00;7.00;4.00
80861;PMS5003;71798;54.942;73.444;2023-08-31T11:18:29;8.00;7.00;4.00
80861;PMS5003;71798;54.942;73.444;2023-08-31T11:21:00;7.00;6.00;4.00
80861;PMS5003;71798;54.942;73.444;2023-08-31T11:23:33;8.50;8.00;5.00
80861;PMS5003;71798;54.942;73.444;2023-08-31T11:26:02;8.75;8.00;5.00
80861;PMS5003;71798;54.942;73.444;2023-08-31T11:28:33;11.00;9.75;6.00
80861;PMS5003;71798;54.942;73.444;2023-08-31T11:31:00;9.00;8.00;5.00
80861;PMS5003;71798;54.942;73.444;2023-08-31T11:33:31;8.00;7.75;4.00
80861;PMS5003;71798;54.942;73.444;2023-08-31T11:36:01;8.00;7.00;4.75
80861;PMS5003;71798;54.942;73.444;2023-08-31T11:38:29;7.25;6.25;4.00
80861;PMS5003;71798;54.942;73.444;2023-08-31T11:40:58;6.00;5.00;4.00
80861;PMS5003;71798;54.942;73.444;2023-08-31T11:43:27;7.00;6.00;3.00
80861;PMS5003;71798;54.942;73.444;2023-08-31T11:45:59;7.00;6.00;4.00
80861;PMS5003;71798;54.942;73.444;2023-08-31T11:48:27;7.00;6.00;4.00
80861;PMS5003;71798;54.942;73.444;2023-08-31T11:50:57;5.00;4.00;3.00
80861;PMS5003;71798;54.942;73.444;2023-08-31T11:53:28;6.00;5.00;3.00
80861;PMS5003;71798;54.942;73.444;2023-08-31T11:55:57;6.00;6.00;3.00
80861;PMS5003;71798;54.942;73.444;2023-08-31T11:58:29;7.00;6.00;4.00
80861;PMS5003;71798;54.942;73.444;2023-08-31T12:00:58;7.00;6.00;4.00
80861;PMS5003;71798;54.942;73.444;2023-08-31T12:03:27;8.00;7.50;4.00
80861;PMS5003;71798;54.942;73.444;2023-08-31T12:05:56;7.00;6.00;4.00
80861;PMS5003;71798;54.942;73.444;2023-08-31T12:08:27;6.25;6.00;3.00
80861;PMS5003;71798;54.942;73.444;2023-08-31T12:10:55;6.00;5.00;3.00
80861;PMS5003;71798;54.942;73.444;2023-08-31T12:13:25;6.00;5.00;3.00
80861;PMS5003;71798;54.942;73.444;2023-08-31T12:15:57;7.00;6.00;3.00
80861;PMS5003;71798;54.942;73.444;2023-08-31T12:18:32;6.00;6.00;4.00
80861;PMS5003;71798;54.942;73.444;2023-08-31T12:21:02;5.00;4.50;3.00
80861;PMS5003;71798;54.942;73.444;2023-08-31T12:23:32;7.00;6.00;4.00
80861;PMS5003;71798;54.942;73.444;2023-08-31T12:26:01;6.00;5.00;3.00
80861;PMS5003;71798;54.942;73.444;2023-08-31T12:28:30;6.50;5.75;3.00
80861;PMS5003;71798;54.942;73.444;2023-08-31T12:30:58;7.00;6.00;3.00
80861;PMS5003;71798;54.942;73.444;2023-08-31T12:33:30;7.00;6.75;4.00
80861;PMS5003;71798;54.942;73.444;2023-08-31T12:35:59;7.00;6.25;4.75
80861;PMS5003;71798;54.942;73.444;2023-08-31T12:38:28;7.00;6.00;5.00
80861;PMS5003;71798;54.942;73.444;2023-08-31T12:40:57;9.00;9.00;6.00
80861;PMS5003;71798;54.942;73.444;2023-08-31T12:43:25;8.25;7.50;5.00
80861;PMS5003;71798;54.942;73.444;2023-08-31T12:45:56;11.50;10.00;6.00
80861;PMS5003;71798;54.942;73.444;2023-08-31T12:48:26;8.00;8.00;6.00
80861;PMS5003;71798;54.942;73.444;2023-08-31T12:50:57;8.00;7.00;5.00
80861;PMS5003;71798;54.942;73.444;2023-08-31T12:53:27;9.25;9.00;6.00
80861;PMS5003;71798;54.942;73.444;2023-08-31T12:55:55;10.00;9.00;5.00
80861;PMS5003;71798;54.942;73.444;2023-08-31T12:58:25;10.00;9.00;5.50
80861;PMS5003;71798;54.942;73.444;2023-08-31T13:00:53;11.00;10.00;6.00
80861;PMS5003;71798;54.942;73.444;2023-08-31T13:03:22;9.00;8.75;5.00
80861;PMS5003;71798;54.942;73.444;2023-08-31T13:05:52;12.00;10.00;6.00
80861;PMS5003;71798;54.942;73.444;2023-08-31T13:08:24;10.00;9.00;6.00
80861;PMS5003;71798;54.942;73.444;2023-08-31T13:10:59;8.50;8.00;5.00
80861;PMS5003;71798;54.942;73.444;2023-08-31T13:13:28;11.00;10.00;6.00
80861;PMS5003;71798;54.942;73.444;2023-08-31T13:16:00;13.00;11.00;7.00
80861;PMS5003;71798;54.942;73.444;2023-08-31T13:18:33;9.00;8.00;5.00
80861;PMS5003;71798;54.942;73.444;2023-08-31T13:21:02;14.00;12.00;8.00
80861;PMS5003;71798;54.942;73.444;2023-08-31T13:23:32;18.00;15.00;9.00
80861;PMS5003;71798;54.942;73.444;2023-08-31T13:26:03;20.00;17.00;9.00
80861;PMS5003;71798;54.942;73.444;2023-08-31T13:28:33;23.00;19.00;11.75
80861;PMS5003;71798;54.942;73.444;2023-08-31T13:31:03;16.00;14.25;8.25
80861;PMS5003;71798;54.942;73.444;2023-08-31T13:33:30;11.00;10.00;6.00
80861;PMS5003;71798;54.942;73.444;2023-08-31T13:35:58;11.00;9.00;6.00
80861;PMS5003;71798;54.942;73.444;2023-08-31T13:38:27;14.00;12.00;7.00
80861;PMS5003;71798;54.942;73.444;2023-08-31T13:40:57;11.50;10.50;7.00
80861;PMS5003;71798;54.942;73.444;2023-08-31T13:43:24;12.00;11.00;7.00
80861;PMS5003;71798;54.942;73.444;2023-08-31T13:45:53;11.00;9.75;6.00
80861;PMS5003;71798;54.942;73.444;2023-08-31T13:48:25;9.50;8.00;5.50
80861;PMS5003;71798;54.942;73.444;2023-08-31T13:51:00;9.00;8.00;6.00
80861;PMS5003;71798;54.942;73.444;2023-08-31T13:53:31;9.00;8.00;5.00
80861;PMS5003;71798;54.942;73.444;2023-08-31T13:56:05;9.00;8.00;5.00
80861;PMS5003;71798;54.942;73.444;2023-08-31T13:58:38;12.75;11.00;7.00
80861;PMS5003;71798;54.942;73.444;2023-08-31T14:01:09;12.00;10.00;6.00
80861;PMS5003;71798;54.942;73.444;2023-08-31T14:03:47;13.00;11.00;6.00
80861;PMS5003;71798;54.942;73.444;2023-08-31T14:06:19;14.00;13.00;8.00
80861;PMS5003;71798;54.942;73.444;2023-08-31T14:08:50;12.50;10.75;6.00
80861;PMS5003;71798;54.942;73.444;2023-08-31T14:11:19;14.00;11.00;7.00
80861;PMS5003;71798;54.942;73.444;2023-08-31T14:13:48;27.75;23.25;14.00
80861;PMS5003;71798;54.942;73.444;2023-08-31T14:16:19;14.00;12.00;8.00
80861;PMS5003;71798;54.942;73.444;2023-08-31T14:18:49;14.50;12.00;8.00
80861;PMS5003;71798;54.942;73.444;2023-08-31T14:21:17;17.25;15.00;9.00
80861;PMS5003;71798;54.942;73.444;2023-08-31T14:23:48;16.00;14.00;9.00
80861;PMS5003;71798;54.942;73.444;2023-08-31T14:26:18;15.00;13.00;8.00
80861;PMS5003;71798;54.942;73.444;2023-08-31T14:28:55;16.00;14.00;9.00
80861;PMS5003;71798;54.942;73.444;2023-08-31T14:31:24;16.00;15.00;10.00
80861;PMS5003;71798;54.942;73.444;2023-08-31T14:33:53;16.25;14.50;9.25
80861;PMS5003;71798;54.942;73.444;2023-08-31T14:36:25;16.50;14.25;8.00
80861;PMS5003;71798;54.942;73.444;2023-08-31T14:38:52;42.50;33.50;20.00
80861;PMS5003;71798;54.942;73.444;2023-08-31T14:41:20;55.00;42.00;25.00